sensor_id;sensor_type;location;lat;lon;timestamp;pressure;altitude;pressure_sealevel;temperature;humidity
39455;BME280;25155;41.890;23.446;2023-02-13T00:01:31;93362.66;;;-2.06;54.06
39455;BME280;25155;41.890;23.446;2023-02-13T00:03:59;93365.41;;;-2.08;54.11
39455;BME280;25155;41.890;23.446;2023-02-13T00:06:28;93361.88;;;-2.07;54.36
39455;BME280;25155;41.890;23.446;2023-02-13T00:08:55;93365.69;;;-2.03;54.31
39455;BME280;25155;41.890;23.446;2023-02-13T00:11:22;93366.31;;;-2.01;54.52
39455;BME280;25155;41.890;23.446;2023-02-13T00:13:50;93369.72;;;-2.00;54.16
39455;BME280;25155;41.890;23.446;2023-02-13T00:16:17;93367.75;;;-1.98;54.11
39455;BME280;25155;41.890;23.446;2023-02-13T00:18:44;93368.38;;;-1.96;54.03
39455;BME280;25155;41.890;23.446;2023-02-13T00:21:14;93375.81;;;-2.01;54.74
39455;BME280;25155;41.890;23.446;2023-02-13T00:23:43;93383.34;;;-2.00;54.87
39455;BME280;25155;41.890;23.446;2023-02-13T00:26:12;93384.13;;;-1.99;54.39
39455;BME280;25155;41.890;23.446;2023-02-13T00:28:39;93378.03;;;-1.98;54.31
39455;BME280;25155;41.890;23.446;2023-02-13T00:31:08;93378.88;;;-2.06;56.35
39455;BME280;25155;41.890;23.446;2023-02-13T00:33:37;93379.56;;;-2.12;55.79
39455;BME280;25155;41.890;23.446;2023-02-13T00:36:07;93365.91;;;-2.13;56.00
39455;BME280;25155;41.890;23.446;2023-02-13T00:38:36;93371.69;;;-2.11;55.52
39455;BME280;25155;41.890;23.446;2023-02-13T00:41:05;93371.84;;;-2.12;55.10
39455;BME280;25155;41.890;23.446;2023-02-13T00:43:33;93371.34;;;-2.08;54.82
39455;BME280;25155;41.890;23.446;2023-02-13T00:46:02;93365.56;;;-2.10;55.11
39455;BME280;25155;41.890;23.446;2023-02-13T00:48:31;93364.00;;;-2.11;55.07
39455;BME280;25155;41.890;23.446;2023-02-13T00:50:59;93366.56;;;-2.11;54.67
39455;BME280;25155;41.890;23.446;2023-02-13T00:53:27;93344.75;;;-2.23;54.82
39455;BME280;25155;41.890;23.446;2023-02-13T00:55:54;93366.72;;;-2.12;54.59
39455;BME280;25155;41.890;23.446;2023-02-13T00:58:23;93363.50;;;-2.14;54.73
39455;BME280;25155;41.890;23.446;2023-02-13T01:00:51;93352.94;;;-2.19;54.83
39455;BME280;25155;41.890;23.446;2023-02-13T01:03:21;93358.56;;;-2.24;54.94
39455;BME280;25155;41.890;23.446;2023-02-13T01:05:49;93357.94;;;-2.26;54.60
39455;BME280;25155;41.890;23.446;2023-02-13T01:08:17;93360.84;;;-2.29;54.98
39455;BME280;25155;41.890;23.446;2023-02-13T01:10:46;93356.69;;;-2.30;54.53
39455;BME280;25155;41.890;23.446;2023-02-13T01:13:16;93358.44;;;-2.31;54.59
39455;BME280;25155;41.890;23.446;2023-02-13T01:15:46;93356.03;;;-2.32;54.83
39455;BME280;25155;41.890;23.446;2023-02-13T01:18:15;93353.47;;;-2.32;55.21
39455;BME280;25155;41.890;23.446;2023-02-13T01:20:42;93347.75;;;-2.42;55.17
39455;BME280;25155;41.890;23.446;2023-02-13T01:23:10;93358.19;;;-2.52;55.45
39455;BME280;25155;41.890;23.446;2023-02-13T01:25:39;93365.47;;;-2.64;55.77
39455;BME280;25155;41.890;23.446;2023-02-13T01:28:07;93360.66;;;-2.67;56.09
39455;BME280;25155;41.890;23.446;2023-02-13T01:30:35;93364.84;;;-2.66;55.93
39455;BME280;25155;41.890;23.446;2023-02-13T01:33:05;93370.91;;;-2.67;56.23
39455;BME280;25155;41.890;23.446;2023-02-13T01:35:32;93367.09;;;-2.71;55.95
39455;BME280;25155;41.890;23.446;2023-02-13T01:37:59;93374.00;;;-2.72;56.04
39455;BME280;25155;41.890;23.446;2023-02-13T01:40:26;93377.38;;;-2.71;56.07
39455;BME280;25155;41.890;23.446;2023-02-13T01:42:54;93385.25;;;-2.81;56.76
39455;BME280;25155;41.890;23.446;2023-02-13T01:45:24;93379.97;;;-2.88;56.74
39455;BME280;25155;41.890;23.446;2023-02-13T01:47:54;93383.47;;;-2.89;56.79
39455;BME280;25155;41.890;23.446;2023-02-13T01:50:29;93387.66;;;-2.88;56.49
39455;BME280;25155;41.890;23.446;2023-02-13T01:53:06;93385.09;;;-2.88;56.36
39455;BME280;25155;41.890;23.446;2023-02-13T01:55:37;93380.91;;;-2.89;56.08
39455;BME280;25155;41.890;23.446;2023-02-13T01:58:12;93376.09;;;-2.92;56.25
39455;BME280;25155;41.890;23.446;2023-02-13T02:00:42;93381.25;;;-2.92;55.82
39455;BME280;25155;41.890;23.446;2023-02-13T02:03:17;93373.88;;;-2.95;56.04
39455;BME280;25155;41.890;23.446;2023-02-13T02:05:49;93366.84;;;-3.01;56.23
39455;BME280;25155;41.890;23.446;2023-02-13T02:08:17;93373.09;;;-3.28;56.34
39455;BME280;25155;41.890;23.446;2023-02-13T02:10:45;93374.38;;;-3.16;55.98
39455;BME280;25155;41.890;23.446;2023-02-13T02:13:15;93375.81;;;-3.13;56.22
39455;BME280;25155;41.890;23.446;2023-02-13T02:15:44;93380.78;;;-3.12;56.44
39455;BME280;25155;41.890;23.446;2023-02-13T02:18:14;93382.88;;;-3.15;56.00
39455;BME280;25155;41.890;23.446;2023-02-13T02:21:11;93380.78;;;-3.20;56.00
39455;BME280;25155;41.890;23.446;2023-02-13T02:24:16;93387.84;;;-3.22;56.31
39455;BME280;25155;41.890;23.446;2023-02-13T02:32:59;93392.03;;;-3.29;55.94
39455;BME280;25155;41.890;23.446;2023-02-13T02:35:36;93392.19;;;-3.31;55.93
39455;BME280;25155;41.890;23.446;2023-02-13T02:38:15;93406.94;;;-3.33;56.45
39455;BME280;25155;41.890;23.446;2023-02-13T02:40:57;93397.00;;;-3.36;56.43
39455;BME280;25155;41.890;23.446;2023-02-13T02:43:43;93397.31;;;-3.39;56.34
39455;BME280;25155;41.890;23.446;2023-02-13T02:46:18;93392.81;;;-3.45;56.13
39455;BME280;25155;41.890;23.446;2023-02-13T02:48:54;93394.13;;;-3.41;56.07
39455;BME280;25155;41.890;23.446;2023-02-13T02:51:47;93408.19;;;-3.45;55.73
39455;BME280;25155;41.890;23.446;2023-02-13T02:54:25;93409.66;;;-3.51;56.21
39455;BME280;25155;41.890;23.446;2023-02-13T02:57:14;93417.00;;;-3.56;56.29
39455;BME280;25155;41.890;23.446;2023-02-13T02:59:43;93419.06;;;-3.60;56.83
39455;BME280;25155;41.890;23.446;2023-02-13T03:02:30;93422.75;;;-3.62;56.33
39455;BME280;25155;41.890;23.446;2023-02-13T03:05:20;93425.16;;;-3.69;56.10
39455;BME280;25155;41.890;23.446;2023-02-13T03:08:05;93425.78;;;-3.75;56.22
39455;BME280;25155;41.890;23.446;2023-02-13T03:10:35;93430.75;;;-3.73;55.68
39455;BME280;25155;41.890;23.446;2023-02-13T03:13:35;93444.00;;;-3.78;55.97
39455;BME280;25155;41.890;23.446;2023-02-13T03:16:10;93443.38;;;-3.80;55.86
39455;BME280;25155;41.890;23.446;2023-02-13T03:18:57;93449.13;;;-3.86;55.37
39455;BME280;25155;41.890;23.446;2023-02-13T03:21:47;93445.09;;;-3.97;56.00
39455;BME280;25155;41.890;23.446;2023-02-13T03:24:44;93447.47;;;-4.04;55.97
39455;BME280;25155;41.890;23.446;2023-02-13T03:27:20;93444.91;;;-4.04;56.11
39455;BME280;25155;41.890;23.446;2023-02-13T03:30:15;93451.13;;;-4.06;56.09
39455;BME280;25155;41.890;23.446;2023-02-13T03:32:56;93455.09;;;-4.20;57.66
39455;BME280;25155;41.890;23.446;2023-02-13T03:35:33;93451.69;;;-4.29;57.69
39455;BME280;25155;41.890;23.446;2023-02-13T03:38:25;93444.81;;;-4.28;57.63
39455;BME280;25155;41.890;23.446;2023-02-13T03:40:59;93447.97;;;-4.35;57.82
39455;BME280;25155;41.890;23.446;2023-02-13T03:43:57;93456.53;;;-4.52;58.88
39455;BME280;25155;41.890;23.446;2023-02-13T03:46:30;93447.84;;;-4.59;58.82
39455;BME280;25155;41.890;23.446;2023-02-13T03:49:00;93450.09;;;-4.56;58.93
39455;BME280;25155;41.890;23.446;2023-02-13T03:51:50;93445.63;;;-4.54;58.67
39455;BME280;25155;41.890;23.446;2023-02-13T03:54:24;93446.94;;;-4.50;58.33
39455;BME280;25155;41.890;23.446;2023-02-13T03:57:12;93439.28;;;-4.50;58.12
39455;BME280;25155;41.890;23.446;2023-02-13T04:00:00;93449.22;;;-4.47;57.69
39455;BME280;25155;41.890;23.446;2023-02-13T04:02:32;93441.69;;;-4.49;57.32
39455;BME280;25155;41.890;23.446;2023-02-13T04:05:07;93443.28;;;-4.47;57.46
39455;BME280;25155;41.890;23.446;2023-02-13T04:07:36;93447.28;;;-4.45;57.28
39455;BME280;25155;41.890;23.446;2023-02-13T04:10:08;93455.91;;;-4.46;57.27
39455;BME280;25155;41.890;23.446;2023-02-13T04:12:42;93457.84;;;-4.48;57.04
39455;BME280;25155;41.890;23.446;2023-02-13T04:15:17;93453.50;;;-4.47;56.82
39455;BME280;25155;41.890;23.446;2023-02-13T04:17:49;93454.63;;;-4.50;56.50
39455;BME280;25155;41.890;23.446;2023-02-13T04:20:19;93456.88;;;-4.47;56.66
39455;BME280;25155;41.890;23.446;2023-02-13T04:22:47;93461.84;;;-4.45;56.51
39455;BME280;25155;41.890;23.446;2023-02-13T04:25:17;93462.94;;;-4.48;56.63
39455;BME280;25155;41.890;23.446;2023-02-13T04:27:45;93462.81;;;-4.46;56.20
39455;BME280;25155;41.890;23.446;2023-02-13T04:30:13;93469.97;;;-4.50;56.69
39455;BME280;25155;41.890;23.446;2023-02-13T04:32:41;93471.19;;;-4.62;57.64
39455;BME280;25155;41.890;23.446;2023-02-13T04:35:08;93471.66;;;-4.67;56.87
39455;BME280;25155;41.890;23.446;2023-02-13T04:37:36;93474.34;;;-4.69;57.15
39455;BME280;25155;41.890;23.446;2023-02-13T04:40:04;93478.28;;;-4.74;57.03
39455;BME280;25155;41.890;23.446;2023-02-13T04:42:33;93487.25;;;-4.78;57.32
39455;BME280;25155;41.890;23.446;2023-02-13T04:45:00;93487.38;;;-4.80;57.16
39455;BME280;25155;41.890;23.446;2023-02-13T04:47:27;93495.84;;;-4.79;56.77
39455;BME280;25155;41.890;23.446;2023-02-13T04:49:54;93507.19;;;-4.82;56.92
39455;BME280;25155;41.890;23.446;2023-02-13T04:52:22;93505.59;;;-4.83;56.93
39455;BME280;25155;41.890;23.446;2023-02-13T04:54:49;93503.97;;;-4.84;56.40
39455;BME280;25155;41.890;23.446;2023-02-13T04:57:17;93504.94;;;-4.85;56.37
39455;BME280;25155;41.890;23.446;2023-02-13T04:59:46;93500.13;;;-4.88;56.61
39455;BME280;25155;41.890;23.446;2023-02-13T05:02:13;93499.97;;;-4.87;56.47
39455;BME280;25155;41.890;23.446;2023-02-13T05:04:40;93503.63;;;-4.89;56.48
39455;BME280;25155;41.890;23.446;2023-02-13T05:07:08;93501.88;;;-4.89;56.62
39455;BME280;25155;41.890;23.446;2023-02-13T05:09:35;93500.25;;;-4.90;56.00
39455;BME280;25155;41.890;23.446;2023-02-13T05:12:02;93503.75;;;-4.91;56.07
39455;BME280;25155;41.890;23.446;2023-02-13T05:14:30;93504.88;;;-4.93;56.15
39455;BME280;25155;41.890;23.446;2023-02-13T05:16:59;93515.97;;;-5.02;56.17
39455;BME280;25155;41.890;23.446;2023-02-13T05:19:26;93507.81;;;-5.06;56.02
39455;BME280;25155;41.890;23.446;2023-02-13T05:21:53;93504.59;;;-5.08;56.08
39455;BME280;25155;41.890;23.446;2023-02-13T05:24:38;93501.81;;;-5.15;56.27
39455;BME280;25155;41.890;23.446;2023-02-13T05:27:05;93506.13;;;-5.15;55.96
39455;BME280;25155;41.890;23.446;2023-02-13T05:29:32;93510.56;;;-5.17;56.25
39455;BME280;25155;41.890;23.446;2023-02-13T05:32:01;93506.03;;;-5.24;56.54
39455;BME280;25155;41.890;23.446;2023-02-13T05:34:28;93510.50;;;-5.26;56.42
39455;BME280;25155;41.890;23.446;2023-02-13T05:36:56;93511.63;;;-5.28;56.10
39455;BME280;25155;41.890;23.446;2023-02-13T05:39:23;93512.19;;;-5.34;56.64
39455;BME280;25155;41.890;23.446;2023-02-13T05:41:50;93511.53;;;-5.36;57.05
39455;BME280;25155;41.890;23.446;2023-02-13T05:44:18;93510.56;;;-5.35;56.49
39455;BME280;25155;41.890;23.446;2023-02-13T05:46:46;93518.91;;;-5.33;56.59
39455;BME280;25155;41.890;23.446;2023-02-13T05:49:15;93518.53;;;-5.38;57.41
39455;BME280;25155;41.890;23.446;2023-02-13T05:51:42;93518.84;;;-5.42;58.19
39455;BME280;25155;41.890;23.446;2023-02-13T05:54:11;93516.72;;;-5.46;58.72
39455;BME280;25155;41.890;23.446;2023-02-13T05:56:38;93517.78;;;-5.49;58.47
39455;BME280;25155;41.890;23.446;2023-02-13T05:59:06;93509.84;;;-5.46;58.44
39455;BME280;25155;41.890;23.446;2023-02-13T06:01:33;93521.47;;;-5.33;58.39
39455;BME280;25155;41.890;23.446;2023-02-13T06:04:00;93513.50;;;-5.30;58.01
39455;BME280;25155;41.890;23.446;2023-02-13T06:06:29;93527.09;;;-5.12;58.35
39455;BME280;25155;41.890;23.446;2023-02-13T06:08:56;93525.34;;;-4.93;57.92
39455;BME280;25155;41.890;23.446;2023-02-13T06:11:23;93520.97;;;-4.57;57.94
39455;BME280;25155;41.890;23.446;2023-02-13T06:13:50;93520.88;;;-3.78;57.17
39455;BME280;25155;41.890;23.446;2023-02-13T06:16:17;93519.44;;;-3.22;55.62
39455;BME280;25155;41.890;23.446;2023-02-13T06:18:44;93521.34;;;-3.24;55.16
39455;BME280;25155;41.890;23.446;2023-02-13T06:21:12;93527.41;;;-3.41;55.52
39455;BME280;25155;41.890;23.446;2023-02-13T06:23:40;93533.78;;;-3.53;55.67
39455;BME280;25155;41.890;23.446;2023-02-13T06:26:08;93532.81;;;-3.61;55.85
39455;BME280;25155;41.890;23.446;2023-02-13T06:28:35;93533.28;;;-3.57;55.85
39455;BME280;25155;41.890;23.446;2023-02-13T06:31:03;93526.41;;;-3.57;56.24
39455;BME280;25155;41.890;23.446;2023-02-13T06:33:31;93533.94;;;-3.55;56.07
39455;BME280;25155;41.890;23.446;2023-02-13T06:35:58;93536.97;;;-3.51;56.27
39455;BME280;25155;41.890;23.446;2023-02-13T06:38:25;93528.34;;;-3.50;56.22
39455;BME280;25155;41.890;23.446;2023-02-13T06:40:58;93537.19;;;-3.37;56.22
39455;BME280;25155;41.890;23.446;2023-02-13T06:43:26;93540.28;;;-3.25;56.80
39455;BME280;25155;41.890;23.446;2023-02-13T06:45:53;93539.00;;;-3.12;56.90
39455;BME280;25155;41.890;23.446;2023-02-13T06:48:21;93537.09;;;-3.02;56.74
39455;BME280;25155;41.890;23.446;2023-02-13T06:50:48;93545.78;;;-2.87;56.66
39455;BME280;25155;41.890;23.446;2023-02-13T06:53:17;93538.88;;;-2.78;56.80
39455;BME280;25155;41.890;23.446;2023-02-13T06:55:49;93545.94;;;-2.72;56.59
39455;BME280;25155;41.890;23.446;2023-02-13T06:58:18;93536.47;;;-2.63;56.78
39455;BME280;25155;41.890;23.446;2023-02-13T07:00:46;93528.16;;;-2.57;56.47
39455;BME280;25155;41.890;23.446;2023-02-13T07:03:13;93525.88;;;-2.43;56.75
39455;BME280;25155;41.890;23.446;2023-02-13T07:05:41;93541.28;;;-2.27;56.70
39455;BME280;25155;41.890;23.446;2023-02-13T07:08:08;93531.63;;;-2.17;56.67
39455;BME280;25155;41.890;23.446;2023-02-13T07:10:36;93530.97;;;-2.11;56.24
39455;BME280;25155;41.890;23.446;2023-02-13T07:13:04;93528.84;;;-1.99;55.97
39455;BME280;25155;41.890;23.446;2023-02-13T07:15:34;93525.75;;;-1.94;55.77
39455;BME280;25155;41.890;23.446;2023-02-13T07:18:01;93527.84;;;-1.90;54.70
39455;BME280;25155;41.890;23.446;2023-02-13T07:20:29;93511.00;;;-1.92;54.73
39455;BME280;25155;41.890;23.446;2023-02-13T07:22:57;93513.38;;;-1.82;54.89
39455;BME280;25155;41.890;23.446;2023-02-13T07:25:24;93509.97;;;-1.75;54.91
39455;BME280;25155;41.890;23.446;2023-02-13T07:27:51;93515.75;;;-1.73;54.32
39455;BME280;25155;41.890;23.446;2023-02-13T07:30:19;93515.06;;;-1.66;53.94
39455;BME280;25155;41.890;23.446;2023-02-13T07:32:47;93508.63;;;-1.62;54.00
39455;BME280;25155;41.890;23.446;2023-02-13T07:35:16;93506.03;;;-1.54;53.68
39455;BME280;25155;41.890;23.446;2023-02-13T07:37:43;93515.63;;;-1.48;53.96
39455;BME280;25155;41.890;23.446;2023-02-13T07:40:10;93516.56;;;-1.41;53.73
39455;BME280;25155;41.890;23.446;2023-02-13T07:42:37;93519.44;;;-1.36;53.59
39455;BME280;25155;41.890;23.446;2023-02-13T07:45:05;93511.50;;;-1.26;53.56
39455;BME280;25155;41.890;23.446;2023-02-13T07:47:32;93501.00;;;-1.16;53.73
39455;BME280;25155;41.890;23.446;2023-02-13T07:50:01;93518.78;;;-1.06;53.62
39455;BME280;25155;41.890;23.446;2023-02-13T07:52:30;93513.09;;;-1.02;53.39
39455;BME280;25155;41.890;23.446;2023-02-13T07:54:58;93507.44;;;-0.97;53.22
39455;BME280;25155;41.890;23.446;2023-02-13T07:57:25;93508.19;;;-0.88;52.26
39455;BME280;25155;41.890;23.446;2023-02-13T07:59:52;93511.06;;;-0.83;52.77
39455;BME280;25155;41.890;23.446;2023-02-13T08:02:19;93505.38;;;-0.79;52.65
39455;BME280;25155;41.890;23.446;2023-02-13T08:04:46;93507.66;;;-0.84;51.82
39455;BME280;25155;41.890;23.446;2023-02-13T08:07:16;93513.69;;;-0.91;52.12
39455;BME280;25155;41.890;23.446;2023-02-13T08:09:44;93509.91;;;-0.81;52.59
39455;BME280;25155;41.890;23.446;2023-02-13T08:12:29;93519.34;;;-0.73;51.81
39455;BME280;25155;41.890;23.446;2023-02-13T08:14:57;93507.38;;;-0.66;51.60
39455;BME280;25155;41.890;23.446;2023-02-13T08:17:24;93519.34;;;-0.50;52.45
39455;BME280;25155;41.890;23.446;2023-02-13T08:19:51;93513.50;;;-0.29;52.25
39455;BME280;25155;41.890;23.446;2023-02-13T08:22:19;93518.31;;;-0.11;52.21
39455;BME280;25155;41.890;23.446;2023-02-13T08:24:47;93511.66;;;-0.05;51.28
39455;BME280;25155;41.890;23.446;2023-02-13T08:27:14;93508.00;;;0.04;50.58
39455;BME280;25155;41.890;23.446;2023-02-13T08:29:41;93519.84;;;0.13;50.66
39455;BME280;25155;41.890;23.446;2023-02-13T08:32:09;93516.81;;;0.25;50.21
39455;BME280;25155;41.890;23.446;2023-02-13T08:34:36;93509.44;;;0.37;50.17
39455;BME280;25155;41.890;23.446;2023-02-13T08:37:03;93500.88;;;0.51;50.75
39455;BME280;25155;41.890;23.446;2023-02-13T08:39:31;93505.28;;;0.57;49.62
39455;BME280;25155;41.890;23.446;2023-02-13T08:41:59;93503.78;;;0.63;49.99
39455;BME280;25155;41.890;23.446;2023-02-13T08:44:26;93504.28;;;0.73;50.06
39455;BME280;25155;41.890;23.446;2023-02-13T08:46:53;93503.47;;;0.87;49.32
39455;BME280;25155;41.890;23.446;2023-02-13T08:49:21;93497.78;;;0.99;48.92
39455;BME280;25155;41.890;23.446;2023-02-13T08:51:48;93498.75;;;1.13;47.84
39455;BME280;25155;41.890;23.446;2023-02-13T08:54:15;93492.38;;;1.15;47.55
39455;BME280;25155;41.890;23.446;2023-02-13T08:56:44;93494.97;;;1.15;47.05
39455;BME280;25155;41.890;23.446;2023-02-13T08:59:11;93487.75;;;1.25;47.36
39455;BME280;25155;41.890;23.446;2023-02-13T09:01:38;93484.25;;;1.40;47.53
39455;BME280;25155;41.890;23.446;2023-02-13T09:04:06;93481.53;;;1.48;46.37
39455;BME280;25155;41.890;23.446;2023-02-13T09:06:33;93479.25;;;1.60;46.43
39455;BME280;25155;41.890;23.446;2023-02-13T09:09:00;93467.59;;;1.71;45.48
39455;BME280;25155;41.890;23.446;2023-02-13T09:11:29;93469.84;;;1.80;45.48
39455;BME280;25155;41.890;23.446;2023-02-13T09:13:57;93473.13;;;1.96;45.97
39455;BME280;25155;41.890;23.446;2023-02-13T09:16:25;93466.81;;;2.05;44.87
39455;BME280;25155;41.890;23.446;2023-02-13T09:18:52;93460.69;;;2.13;45.38
39455;BME280;25155;41.890;23.446;2023-02-13T09:21:21;93462.88;;;2.16;44.79
39455;BME280;25155;41.890;23.446;2023-02-13T09:23:48;93461.38;;;2.28;44.72
39455;BME280;25155;41.890;23.446;2023-02-13T09:26:17;93453.44;;;2.36;44.28
39455;BME280;25155;41.890;23.446;2023-02-13T09:28:44;93462.22;;;2.42;43.03
39455;BME280;25155;41.890;23.446;2023-02-13T09:31:14;93465.41;;;2.51;43.18
39455;BME280;25155;41.890;23.446;2023-02-13T09:33:42;93455.16;;;2.71;44.27
39455;BME280;25155;41.890;23.446;2023-02-13T09:36:12;93451.78;;;2.90;43.71
39455;BME280;25155;41.890;23.446;2023-02-13T09:38:42;93450.25;;;2.96;41.50
39455;BME280;25155;41.890;23.446;2023-02-13T09:41:12;93446.03;;;2.95;40.90
39455;BME280;25155;41.890;23.446;2023-02-13T09:43:45;93439.25;;;2.94;40.96
39455;BME280;25155;41.890;23.446;2023-02-13T09:46:18;93431.31;;;3.02;41.17
39455;BME280;25155;41.890;23.446;2023-02-13T09:48:50;93435.72;;;3.08;41.20
39455;BME280;25155;41.890;23.446;2023-02-13T09:51:20;93432.34;;;3.21;41.41
39455;BME280;25155;41.890;23.446;2023-02-13T09:53:53;93424.19;;;3.24;39.87
39455;BME280;25155;41.890;23.446;2023-02-13T09:56:31;93432.16;;;3.23;40.00
39455;BME280;25155;41.890;23.446;2023-02-13T09:59:06;93420.78;;;3.31;39.95
39455;BME280;25155;41.890;23.446;2023-02-13T10:01:43;93424.94;;;3.52;40.16
39455;BME280;25155;41.890;23.446;2023-02-13T10:04:31;93417.56;;;3.62;40.30
39455;BME280;25155;41.890;23.446;2023-02-13T10:07:13;93416.94;;;3.73;39.00
39455;BME280;25155;41.890;23.446;2023-02-13T10:09:52;93407.38;;;3.74;38.02
39455;BME280;25155;41.890;23.446;2023-02-13T10:12:43;93398.81;;;3.67;38.24
39455;BME280;25155;41.890;23.446;2023-02-13T10:15:18;93401.00;;;3.76;39.90
39455;BME280;25155;41.890;23.446;2023-02-13T10:17:55;93392.59;;;3.88;39.43
39455;BME280;25155;41.890;23.446;2023-02-13T10:20:30;93376.63;;;3.84;39.47
39455;BME280;25155;41.890;23.446;2023-02-13T10:23:05;93379.41;;;3.96;39.14
39455;BME280;25155;41.890;23.446;2023-02-13T10:25:43;93371.38;;;4.04;39.52
39455;BME280;25155;41.890;23.446;2023-02-13T10:28:27;93370.97;;;4.07;37.62
39455;BME280;25155;41.890;23.446;2023-02-13T10:30:58;93362.63;;;4.05;37.56
39455;BME280;25155;41.890;23.446;2023-02-13T10:33:33;93355.03;;;4.04;38.17
39455;BME280;25155;41.890;23.446;2023-02-13T10:36:08;93361.78;;;4.11;38.54
39455;BME280;25155;41.890;23.446;2023-02-13T10:38:43;93350.38;;;4.19;39.36
39455;BME280;25155;41.890;23.446;2023-02-13T10:41:22;93351.16;;;4.19;37.90
39455;BME280;25155;41.890;23.446;2023-02-13T10:44:02;93346.13;;;4.25;39.22
39455;BME280;25155;41.890;23.446;2023-02-13T10:46:42;93333.19;;;4.18;40.20
39455;BME280;25155;41.890;23.446;2023-02-13T10:49:30;93337.84;;;4.09;39.83
39455;BME280;25155;41.890;23.446;2023-02-13T10:52:07;93336.06;;;4.03;41.73
39455;BME280;25155;41.890;23.446;2023-02-13T10:54:51;93324.91;;;3.96;40.81
39455;BME280;25155;41.890;23.446;2023-02-13T10:57:29;93324.50;;;3.99;39.75
39455;BME280;25155;41.890;23.446;2023-02-13T11:00:09;93322.50;;;4.01;41.29
39455;BME280;25155;41.890;23.446;2023-02-13T11:02:41;93315.50;;;4.01;40.28
39455;BME280;25155;41.890;23.446;2023-02-13T11:05:16;93306.34;;;3.99;39.42
39455;BME280;25155;41.890;23.446;2023-02-13T11:07:45;93311.91;;;4.02;40.01
39455;BME280;25155;41.890;23.446;2023-02-13T11:10:15;93302.75;;;4.00;39.14
39455;BME280;25155;41.890;23.446;2023-02-13T11:12:43;93305.94;;;4.02;39.86
39455;BME280;25155;41.890;23.446;2023-02-13T11:15:21;93299.50;;;4.11;38.35
39455;BME280;25155;41.890;23.446;2023-02-13T11:17:50;93302.25;;;4.16;39.38
39455;BME280;25155;41.890;23.446;2023-02-13T11:20:27;93295.88;;;4.19;39.48
39455;BME280;25155;41.890;23.446;2023-02-13T11:22:56;93287.47;;;4.24;39.63
39455;BME280;25155;41.890;23.446;2023-02-13T11:25:52;93281.09;;;4.19;36.26
39455;BME280;25155;41.890;23.446;2023-02-13T11:28:22;93283.13;;;4.17;40.48
39455;BME280;25155;41.890;23.446;2023-02-13T11:30:49;93272.53;;;4.19;38.78
39455;BME280;25155;41.890;23.446;2023-02-13T11:33:22;93268.25;;;4.31;38.75
39455;BME280;25155;41.890;23.446;2023-02-13T11:36:04;93264.88;;;4.31;40.62
39455;BME280;25155;41.890;23.446;2023-02-13T11:38:32;93261.03;;;4.40;39.58
39455;BME280;25155;41.890;23.446;2023-02-13T11:41:06;93257.06;;;4.31;37.78
39455;BME280;25155;41.890;23.446;2023-02-13T11:43:36;93252.66;;;4.31;37.19
39455;BME280;25155;41.890;23.446;2023-02-13T11:46:06;93243.91;;;4.32;37.96
39455;BME280;25155;41.890;23.446;2023-02-13T11:48:34;93244.69;;;4.33;38.63
39455;BME280;25155;41.890;23.446;2023-02-13T11:51:03;93242.28;;;4.31;36.50
39455;BME280;25155;41.890;23.446;2023-02-13T11:53:35;93248.13;;;4.27;40.02
39455;BME280;25155;41.890;23.446;2023-02-13T11:56:07;93230.91;;;4.32;37.77
39455;BME280;25155;41.890;23.446;2023-02-13T11:58:34;93223.44;;;4.43;35.53
39455;BME280;25155;41.890;23.446;2023-02-13T12:01:26;93222.25;;;4.45;36.65
39455;BME280;25155;41.890;23.446;2023-02-13T12:04:02;93221.16;;;4.53;40.08
39455;BME280;25155;41.890;23.446;2023-02-13T12:06:33;93210.91;;;4.65;39.42
39455;BME280;25155;41.890;23.446;2023-02-13T12:09:08;93203.44;;;4.75;38.65
39455;BME280;25155;41.890;23.446;2023-02-13T12:11:41;93218.19;;;5.00;37.75
39455;BME280;25155;41.890;23.446;2023-02-13T12:14:11;93212.00;;;5.19;38.09
39455;BME280;25155;41.890;23.446;2023-02-13T12:16:42;93208.66;;;5.30;38.95
39455;BME280;25155;41.890;23.446;2023-02-13T12:19:14;93208.47;;;5.50;38.22
39455;BME280;25155;41.890;23.446;2023-02-13T12:22:04;93208.38;;;5.57;38.17
39455;BME280;25155;41.890;23.446;2023-02-13T12:24:53;93203.13;;;5.64;37.72
39455;BME280;25155;41.890;23.446;2023-02-13T12:27:31;93196.59;;;5.73;38.28
39455;BME280;25155;41.890;23.446;2023-02-13T12:30:29;93188.56;;;5.75;38.08
39455;BME280;25155;41.890;23.446;2023-02-13T12:33:10;93183.53;;;5.92;37.75
39455;BME280;25155;41.890;23.446;2023-02-13T12:35:49;93180.03;;;5.86;37.73
39455;BME280;25155;41.890;23.446;2023-02-13T12:38:32;93184.13;;;5.94;37.62
39455;BME280;25155;41.890;23.446;2023-02-13T12:41:13;93174.63;;;5.99;37.78
39455;BME280;25155;41.890;23.446;2023-02-13T12:46:51;93168.84;;;5.97;37.74
39455;BME280;25155;41.890;23.446;2023-02-13T12:52:26;93166.59;;;6.01;37.58
39455;BME280;25155;41.890;23.446;2023-02-13T12:57:59;93155.22;;;6.14;36.88
39455;BME280;25155;41.890;23.446;2023-02-13T13:00:40;93154.06;;;6.10;35.94
39455;BME280;25155;41.890;23.446;2023-02-13T13:03:28;93142.53;;;6.17;36.35
39455;BME280;25155;41.890;23.446;2023-02-13T13:06:12;93147.09;;;6.22;37.01
39455;BME280;25155;41.890;23.446;2023-02-13T13:09:09;93139.38;;;6.27;36.13
39455;BME280;25155;41.890;23.446;2023-02-13T13:11:52;93142.09;;;6.32;36.68
39455;BME280;25155;41.890;23.446;2023-02-13T13:14:27;93130.47;;;6.47;36.54
39455;BME280;25155;41.890;23.446;2023-02-13T13:17:02;93137.94;;;6.67;36.25
39455;BME280;25155;41.890;23.446;2023-02-13T13:19:39;93145.03;;;6.71;36.01
39455;BME280;25155;41.890;23.446;2023-02-13T13:22:17;93132.38;;;6.75;35.63
39455;BME280;25155;41.890;23.446;2023-02-13T13:24:55;93125.22;;;6.82;35.72
39455;BME280;25155;41.890;23.446;2023-02-13T13:27:28;93124.56;;;6.75;35.05
39455;BME280;25155;41.890;23.446;2023-02-13T13:29:58;93118.34;;;6.64;35.56
39455;BME280;25155;41.890;23.446;2023-02-13T13:32:28;93116.97;;;6.73;35.54
39455;BME280;25155;41.890;23.446;2023-02-13T13:34:56;93110.84;;;6.79;36.41